Time,TemperatureF,DewpointF,PressureIn,WindDirection,WindDirectionDegrees,WindSpeedMPH,WindSpeedGustMPH,Humidity,HourlyPrecipIn,Conditions,Clouds,dailyrainin,SolarRadiationWatts/m^2,SoftwareType,DateUTC
2013-01-09 01:00:00,20.0,13.0,29.95,SW,221,12.0,-999.0,72,-99.99,,,-99.99,0.060000,,2013-01-09 08:00:00,
2013-01-09 01:53:00,20.0,13.0,29.95,SW,221,12.0,-999.0,72,-99.99,,,-99.99,0.060000,,2013-01-09 08:53:00,
2013-01-09 02:00:00,24.0,15.0,29.96,SW,227,10.0,-999.0,70,-99.99,,,-99.99,0.040000,,2013-01-09 09:00:00,
2013-01-09 02:53:00,24.0,15.0,29.96,SW,227,10.0,-999.0,70,-99.99,,,-99.99,0.040000,,2013-01-09 09:53:00,
2013-01-09 03:00:00,26.0,17.0,29.94,SSW,203,6.0,-999.0,68,-99.99,,,-99.99,0.040000,,2013-01-09 10:00:00,
2013-01-09 03:52:00,26.0,17.0,29.94,SSW,203,6.0,-999.0,68,-99.99,,,-99.99,0.040000,,2013-01-09 10:52:00,
2013-01-09 04:00:00,24.0,17.0,29.93,South,182,7.0,-999.0,76,-99.99,,,-99.99,0.060000,,2013-01-09 11:00:00,
2013-01-09 04:53:00,24.0,17.0,29.93,South,182,7.0,-999.0,76,-99.99,,,-99.99,0.060000,,2013-01-09 11:53:00,
2013-01-09 05:00:00,20.0,16.0,29.90,South,174,7.0,-999.0,83,-99.99,,,-99.99,0.060000,,2013-01-09 12:00:00,
2013-01-09 05:53:00,20.0,16.0,29.90,South,174,7.0,-999.0,83,-99.99,,,-99.99,0.060000,,2013-01-09 12:53:00,
2013-01-09 06:00:00,19.0,16.0,29.87,South,186,7.0,-999.0,86,-99.99,,,-99.99,0.040000,,2013-01-09 13:00:00,
2013-01-09 06:53:00,19.0,16.0,29.87,South,186,7.0,-999.0,86,-99.99,,,-99.99,0.040000,,2013-01-09 13:53:00,
2013-01-09 07:00:00,21.0,17.0,29.87,SSW,193,6.0,-999.0,83,-99.99,,,-99.99,0.050000,,2013-01-09 14:00:00,
2013-01-09 07:53:00,21.0,17.0,29.87,SSW,193,6.0,-999.0,83,-99.99,,,-99.99,0.050000,,2013-01-09 14:53:00,
2013-01-09 08:00:00,21.0,17.0,29.90,SSW,201,8.0,-999.0,84,-99.99,,,-99.99,2.630000,,2013-01-09 15:00:00,
2013-01-09 08:53:00,21.0,17.0,29.90,SSW,201,8.0,-999.0,84,-99.99,,,-99.99,2.630000,,2013-01-09 15:53:00,
2013-01-09 09:00:00,26.0,19.0,29.89,SW,226,11.0,-999.0,75,-99.99,,,-99.99,33.299999,,2013-01-09 16:00:00,
2013-01-09 09:53:00,26.0,19.0,29.89,SW,226,11.0,-999.0,75,-99.99,,,-99.99,33.299999,,2013-01-09 16:53:00,
2013-01-09 10:00:00,27.0,20.0,29.88,SW,217,18.0,-999.0,73,-99.99,,,-99.99,97.800003,,2013-01-09 17:00:00,
2013-01-09 10:53:00,27.0,20.0,29.88,SW,217,18.0,-999.0,73,-99.99,,,-99.99,97.800003,,2013-01-09 17:53:00,
2013-01-09 11:00:00,32.0,22.0,29.87,SW,215,18.0,-999.0,68,-99.99,,,-99.99,160.399994,,2013-01-09 18:00:00,
2013-01-09 11:53:00,32.0,22.0,29.87,SW,215,18.0,-999.0,68,-99.99,,,-99.99,160.399994,,2013-01-09 18:53:00,
2013-01-09 12:00:00,41.0,27.0,29.84,SW,225,17.0,-999.0,57,-99.99,,,-99.99,226.500000,,2013-01-09 19:00:00,
2013-01-09 12:53:00,41.0,27.0,29.84,SW,225,17.0,-999.0,57,-99.99,,,-99.99,226.500000,,2013-01-09 19:53:00,
2013-01-09 13:00:00,41.0,27.0,29.83,WSW,239,19.0,-999.0,59,-99.99,,,-99.99,232.000000,,2013-01-09 20:00:00,
2013-01-09 13:53:00,41.0,27.0,29.83,WSW,239,19.0,-999.0,59,-99.99,,,-99.99,232.000000,,2013-01-09 20:53:00,
2013-01-09 14:00:00,35.0,26.0,29.83,SW,215,14.0,-999.0,68,-99.99,,,-99.99,147.100006,,2013-01-09 21:00:00,
2013-01-09 14:53:00,35.0,26.0,29.83,SW,215,14.0,-999.0,68,-99.99,,,-99.99,147.100006,,2013-01-09 21:53:00,
2013-01-09 15:00:00,36.0,26.0,29.84,SSW,192,14.0,-999.0,69,-99.99,,,-99.99,90.800003,,2013-01-09 22:00:00,
2013-01-09 15:52:00,36.0,26.0,29.84,SSW,192,14.0,-999.0,69,-99.99,,,-99.99,90.800003,,2013-01-09 22:52:00,
2013-01-09 16:00:00,36.0,28.0,29.81,SSW,204,13.0,-999.0,74,-99.99,,,-99.99,41.660000,,2013-01-09 23:00:00,
2013-01-09 16:53:00,36.0,28.0,29.81,SSW,204,13.0,-999.0,74,-99.99,,,-99.99,41.660000,,2013-01-09 23:53:00,
2013-01-09 17:00:00,35.0,28.0,29.79,South,189,8.0,-999.0,75,-99.99,,,-99.99,4.290000,,2013-01-10 00:00:00,
2013-01-09 17:53:00,35.0,28.0,29.79,South,189,8.0,-999.0,75,-99.99,,,-99.99,4.290000,,2013-01-10 00:53:00,
2013-01-09 18:00:00,34.0,28.0,29.77,South,181,9.0,-999.0,78,-99.99,,,-99.99,0.030000,,2013-01-10 01:00:00,
2013-01-09 18:53:00,34.0,28.0,29.77,South,181,9.0,-999.0,78,-99.99,,,-99.99,0.030000,,2013-01-10 01:53:00,
2013-01-09 19:00:00,36.0,29.0,29.74,South,182,9.0,-999.0,77,-99.99,,,-99.99,0.050000,,2013-01-10 02:00:00,
2013-01-09 20:00:00,35.0,29.0,29.71,SE,135,6.0,-999.0,78,-99.99,,,-99.99,0.030000,,2013-01-10 03:00:00,
2013-01-09 20:53:00,35.0,29.0,29.71,SE,135,6.0,-999.0,78,-99.99,,,-99.99,0.030000,,2013-01-10 03:53:00,
2013-01-09 21:00:00,32.0,28.0,29.69,SSE,160,5.0,-999.0,84,-99.99,,,-99.99,0.050000,,2013-01-10 04:00:00,
2013-01-09 21:52:00,32.0,28.0,29.69,SSE,160,5.0,-999.0,84,-99.99,,,-99.99,0.050000,,2013-01-10 04:52:00,
2013-01-09 22:00:00,36.0,29.0,29.66,South,186,8.0,-999.0,78,-99.99,,,-99.99,0.030000,,2013-01-10 05:00:00,
2013-01-09 22:53:00,36.0,29.0,29.66,South,186,8.0,-999.0,78,-99.99,,,-99.99,0.030000,,2013-01-10 05:53:00,
2013-01-09 23:00:00,35.0,29.0,29.66,SSW,207,9.0,-999.0,78,-99.99,,,-99.99,0.040000,,2013-01-10 06:00:00,
2013-01-09 23:52:00,35.0,29.0,29.66,SSW,207,9.0,-999.0,78,-99.99,,,-99.99,0.040000,,2013-01-10 06:52:00,